Abney, South Carolina
Current Conditions -  °F | °C
As of 10:35 AM on Monday 24 Nov 2014 (Local Time) from KCDN Reporting Station
Overcast Overcast  
Wind Chill: 68°   Ceiling: 1800
Heat Index: 68°   Visibility: 10mi
Dew Point: 64°   Wind: 6mph
Humidity: 88%   Direction: 200°SSW
Pressure: 29.87"   Gusts: NA
Location:  34.5438°N, 80.5351°W
Report Text: KCDN 241535Z AUTO 20005KT 10SM SCT013 BKN018 OVC026 20/18 A2987 RMK AO2 TSNO
Loading
Personal Weather Stations






























Interactive Weather Map New forecast layout! Learn more

10-Day Weather Forecast

Advertisements
Track Severe Weather on mobile